| time (UTC) | temp C | wind direction | speed KPH | gust KPH | rain 1hr cm | rain 24hr cm | rain mn cm | humidity % | barometer mb |
| 20260507103305 | 11 | 290 | 9.7 | 17.7 | 0.00 | 0.00 | 0.00 | 18 | 1016.2 |
| 20260507102307 | 11 | 327 | 16.1 | 24.1 | 0.00 | 0.00 | 0.00 | 22 | 1016.0 |
| 20260507101303 | 12 | 248 | 8.0 | 22.5 | 0.00 | 0.00 | 0.00 | 21 | 1016.0 |
| 20260507100741 | 12 | 289 | 11.3 | 27.4 | 0.00 | 0.00 | 0.00 | 21 | 1015.9 |
| 20260507095306 | 10 | 300 | 11.3 | 24.1 | 0.00 | 0.00 | 0.00 | 23 | 1015.9 |
| 20260507094303 | 11 | 226 | 4.8 | 14.5 | 0.00 | 0.00 | 0.00 | 23 | 1015.9 |
| 20260507093301 | 11 | 300 | 8.0 | 19.3 | 0.00 | 0.00 | 0.00 | 20 | 1015.9 |
| 20260507092302 | 11 | 316 | 11.3 | 22.5 | 0.00 | 0.00 | 0.00 | 24 | 1015.9 |
| 20260507091301 | 10 | 249 | 9.7 | 19.3 | 0.00 | 0.00 | 0.00 | 24 | 1016.0 |
| 20260507090301 | 10 | 276 | 12.9 | 24.1 | 0.00 | 0.00 | 0.00 | 25 | 1016.0 |
| 20260507085306 | 10 | 357 | 8.0 | 19.3 | 0.00 | 0.00 | 0.00 | 25 | 1015.9 |
| 20260507084302 | 10 | 300 | 12.9 | 19.3 | 0.00 | 0.00 | 0.00 | 26 | 1015.9 |
| 20260507083734 | 10 | 322 | 12.9 | 20.9 | 0.00 | 0.00 | 0.00 | 30 | 1015.8 |
| 20260507082746 | 10 | 289 | 11.3 | 20.9 | 0.00 | 0.00 | 0.00 | 30 | 1015.7 |
| 20260507081303 | 9 | 343 | 4.8 | 12.9 | 0.00 | 0.00 | 0.00 | 30 | 1015.7 |
| 20260507080301 | 9 | 305 | 8.0 | 16.1 | 0.00 | 0.00 | 0.00 | 32 | 1015.6 |
| 20260507075301 | 9 | 210 | 11.3 | 19.3 | 0.00 | 0.00 | 0.00 | 33 | 1015.4 |
| 20260507074751 | 9 | 339 | 6.4 | 16.1 | 0.00 | 0.00 | 0.00 | 36 | 1015.5 |
| 20260507073302 | 8 | 339 | 6.4 | 14.5 | 0.00 | 0.00 | 0.00 | 38 | 1015.3 |
| 20260507072758 | 8 | 21 | 4.8 | 11.3 | 0.00 | 0.00 | 0.00 | 39 | 1015.3 |
| 20260507071303 | 8 | 345 | 6.4 | 16.1 | 0.00 | 0.00 | 0.00 | 40 | 1015.4 |
| 20260507070301 | 7 | 338 | 8.0 | 17.7 | 0.00 | 0.00 | 0.00 | 42 | 1015.3 |
| 20260507065305 | 7 | 337 | 4.8 | 9.7 | 0.00 | 0.00 | 0.00 | 48 | 1015.2 |
| 20260507064302 | 6 | 310 | 6.4 | 12.9 | 0.00 | 0.00 | 0.00 | 48 | 1015.3 |
| 20260507063302 | 5 | 328 | 4.8 | 8.0 | 0.00 | 0.00 | 0.00 | 54 | 1015.2 |
| 20260507062301 | 4 | 314 | 1.6 | 6.4 | 0.00 | 0.00 | 0.00 | 55 | 1015.1 |
| 20260507061302 | 3 | 322 | 4.8 | 11.3 | 0.00 | 0.00 | 0.00 | 57 | 1015.2 |
| 20260507060745 | 3 | 354 | 3.2 | 9.7 | 0.00 | 0.00 | 0.00 | 59 | 1015.1 |
| 20260507055301 | 2 | 327 | 4.8 | 6.4 | 0.00 | 0.00 | 0.00 | 60 | 1015.1 |
| 20260507054743 | 2 | 310 | 4.8 | 8.0 | 0.00 | 0.00 | 0.00 | 60 | 1014.9 |
| 20260507053301 | 2 | 293 | 6.4 | 9.7 | 0.00 | 0.00 | 0.00 | 61 | 1014.9 |
| 20260507052305 | 1 | 300 | 8.0 | 12.9 | 0.00 | 0.00 | 0.00 | 63 | 1014.9 |
| 20260507051301 | 1 | 300 | 9.7 | 16.1 | 0.00 | 0.00 | 0.00 | 63 | 1014.8 |
| 20260507050301 | 1 | 315 | 12.9 | 16.1 | 0.00 | 0.00 | 0.00 | 64 | 1014.8 |
| 20260507045301 | 0 | 321 | 11.3 | 17.7 | 0.00 | 0.00 | 0.00 | 64 | 1014.8 |
| 20260507044301 | 0 | 305 | 8.0 | 12.9 | 0.00 | 0.00 | 0.00 | 65 | 1014.8 |
| 20260507043302 | 0 | 329 | 8.0 | 14.5 | 0.00 | 0.00 | 0.00 | 66 | 1014.7 |
| 20260507042301 | 0 | 310 | 8.0 | 14.5 | 0.00 | 0.00 | 0.00 | 68 | 1014.6 |
| 20260507041301 | 0 | 300 | 8.0 | 16.1 | 0.00 | 0.00 | 0.00 | 69 | 1014.6 |
| 20260507040738 | -1 | 295 | 8.0 | 12.9 | 0.00 | 0.00 | 0.00 | 71 | 1014.5 |
| 20260507035301 | -1 | 300 | 9.7 | 16.1 | 0.00 | 0.00 | 0.00 | 73 | 1014.4 |
| 20260507034301 | -2 | 291 | 6.4 | 12.9 | 0.00 | 0.00 | 0.00 | 75 | 1014.4 |
| 20260507033738 | -2 | 300 | 6.4 | 9.7 | 0.00 | 0.00 | 0.00 | 76 | 1014.3 |
| 20260507032301 | -2 | 279 | 4.8 | 8.0 | 0.00 | 0.00 | 0.00 | 76 | 1014.2 |
| 20260507031301 | -2 | 300 | 4.8 | 8.0 | 0.00 | 0.00 | 0.00 | 76 | 1014.2 |
| 20260507030302 | -2 | 281 | 3.2 | 6.4 | 0.00 | 0.00 | 0.00 | 76 | 1014.1 |
| 20260507025300 | -2 | 287 | 6.4 | 12.9 | 0.00 | 0.00 | 0.00 | 75 | 1014.2 |
| 20260507024300 | -2 | 336 | 6.4 | 12.9 | 0.00 | 0.00 | 0.00 | 75 | 1014.2 |
| 20260507023301 | -2 | 287 | 4.8 | 6.4 | 0.00 | 0.00 | 0.00 | 75 | 1014.1 |
| 20260507022306 | -2 | 329 | 0.0 | 3.2 | 0.00 | 0.00 | 0.00 | 74 | 1014.1 |
| 20260507021301 | -2 | 329 | 3.2 | 6.4 | 0.00 | 0.00 | 0.00 | 73 | 1014.0 |
| 20260507020301 | -2 | 289 | 6.4 | 12.9 | 0.00 | 0.00 | 0.00 | 73 | 1013.8 |
| 20260507015300 | -2 | 300 | 6.4 | 9.7 | 0.00 | 0.00 | 0.00 | 74 | 1013.9 |
| 20260507014300 | -2 | 291 | 6.4 | 9.7 | 0.00 | 0.00 | 0.00 | 74 | 1013.9 |
| 20260507013301 | -2 | 288 | 6.4 | 11.3 | 0.00 | 0.00 | 0.00 | 75 | 1013.8 |
| 20260507012301 | -2 | 300 | 4.8 | 6.4 | 0.00 | 0.00 | 0.00 | 74 | 1013.7 |
| 20260507011300 | -2 | 305 | 3.2 | 8.0 | 0.00 | 0.00 | 0.00 | 74 | 1013.7 |
| 20260507010748 | -1 | 300 | 0.0 | 1.6 | 0.00 | 0.00 | 0.00 | 73 | 1013.4 |
| 20260507005300 | -1 | 300 | 0.0 | 1.6 | 0.00 | 0.00 | 0.00 | 72 | 1013.4 |
| 20260507004300 | -1 | 300 | 0.0 | 3.2 | 0.00 | 0.00 | 0.00 | 70 | 1013.3 |
| 20260507003300 | -1 | 300 | 1.6 | 3.2 | 0.00 | 0.00 | 0.00 | 70 | 1013.2 |
| 20260507002301 | 0 | 300 | 3.2 | 4.8 | 0.00 | 0.00 | 0.00 | 70 | 1013.2 |
| 20260507001300 | 0 | 300 | 3.2 | 4.8 | 0.00 | 0.00 | 0.00 | 70 | 1013.0 |
| 20260507000300 | 0 | 300 | 3.2 | 4.8 | 0.00 | 0.00 | 0.00 | 68 | 1012.9 |
| 20260506235301 | 0 | 89 | 1.6 | 4.8 | 0.00 | 0.00 | 0.00 | 67 | 1012.9 |
| 20260506234301 | 0 | 89 | 3.2 | 8.0 | 0.00 | 0.00 | 0.00 | 65 | 1012.8 |
| 20260506233300 | 1 | 314 | 3.2 | 4.8 | 0.00 | 0.00 | 0.00 | 64 | 1012.8 |
| 20260506233218 | 1 | 280 | 6.4 | 12.9 | 0.00 | 0.00 | 0.00 | 64 | 1012.6 |
| 20260506231301 | 1 | 225 | 1.6 | 4.8 | 0.00 | 0.00 | 0.00 | 66 | 1012.5 |
| 20260506230301 | 1 | 327 | 3.2 | 6.4 | 0.00 | 0.00 | 0.00 | 61 | 1012.6 |
| 20260506225305 | 1 | 305 | 6.4 | 8.0 | 0.00 | 0.00 | 0.00 | 61 | 1012.5 |
| 20260506224301 | 2 | 300 | 6.4 | 8.0 | 0.00 | 0.00 | 0.00 | 63 | 1012.5 |
| 20260506223301 | 2 | 305 | 4.8 | 8.0 | 0.00 | 0.00 | 0.00 | 62 | 1012.5 |
| 20260506222301 | 2 | 253 | 1.6 | 3.2 | 0.00 | 0.00 | 0.00 | 61 | 1012.4 |
| 20260506221301 | 2 | 241 | 3.2 | 8.0 | 0.00 | 0.00 | 0.00 | 62 | 1012.5 |
| 20260506220303 | 3 | 259 | 3.2 | 6.4 | 0.00 | 0.00 | 0.00 | 61 | 1012.4 |
| 20260506220223 | 3 | 278 | 1.6 | 4.8 | 0.00 | 0.00 | 0.00 | 60 | 1012.3 |
| 20260506214302 | 3 | 270 | 3.2 | 6.4 | 0.00 | 0.00 | 0.00 | 59 | 1012.4 |
| 20260506213301 | 3 | 121 | 3.2 | 9.7 | 0.00 | 0.00 | 0.00 | 59 | 1012.0 |
| 20260506212752 | 3 | 338 | 3.2 | 8.0 | 0.00 | 0.00 | 0.00 | 55 | 1011.9 |
| 20260506211301 | 4 | 305 | 8.0 | 16.1 | 0.00 | 0.00 | 0.00 | 57 | 1011.8 |
| 20260506210301 | 4 | 15 | 3.2 | 8.0 | 0.00 | 0.00 | 0.00 | 54 | 1011.9 |
| 20260506205258 | 4 | 342 | 3.2 | 4.8 | 0.00 | 0.00 | 0.00 | 55 | 1011.9 |
| 20260506204258 | 5 | 342 | 1.6 | 4.8 | 0.00 | 0.00 | 0.00 | 52 | 1011.8 |
| 20260506203300 | 5 | 356 | 0.0 | 3.2 | 0.00 | 0.03 | 0.00 | 48 | 1011.8 |
| 20260506202259 | 5 | 356 | 1.6 | 4.8 | 0.00 | 0.03 | 0.00 | 48 | 1011.8 |
| 20260506201259 | 5 | 21 | 3.2 | 8.0 | 0.00 | 0.03 | 0.00 | 48 | 1011.9 |
| 20260506200301 | 6 | 358 | 4.8 | 12.9 | 0.00 | 0.03 | 0.00 | 48 | 1011.7 |
| 20260506195300 | 6 | 327 | 1.6 | 6.4 | 0.00 | 0.03 | 0.00 | 47 | 1011.5 |
| 20260506194257 | 7 | 239 | 1.6 | 3.2 | 0.00 | 0.03 | 0.00 | 45 | 1011.6 |
| 20260506193739 | 7 | 239 | 1.6 | 3.2 | 0.00 | 0.03 | 0.00 | 40 | 1011.4 |
| 20260506192257 | 7 | 239 | 3.2 | 6.4 | 0.00 | 0.03 | 0.00 | 39 | 1011.2 |
| 20260506191257 | 8 | 162 | 3.2 | 6.4 | 0.00 | 0.03 | 0.00 | 39 | 1011.2 |
| 20260506190257 | 8 | 226 | 4.8 | 16.1 | 0.00 | 0.03 | 0.00 | 35 | 1011.3 |
| 20260506185255 | 8 | 168 | 8.0 | 22.5 | 0.00 | 0.03 | 0.00 | 34 | 1011.2 |
| 20260506184255 | 8 | 283 | 14.5 | 35.4 | 0.00 | 0.03 | 0.00 | 34 | 1011.5 |
| 20260506183254 | 8 | 251 | 3.2 | 8.0 | 0.00 | 0.03 | 0.00 | 41 | 1011.2 |
| 20260506182253 | 8 | 305 | 1.6 | 4.8 | 0.00 | 0.03 | 0.00 | 38 | 1011.0 |
| 20260506181253 | 9 | 45 | 1.6 | 4.8 | 0.00 | 0.03 | 0.00 | 38 | 1010.9 |
| 20260506180250 | 9 | 341 | 1.6 | 11.3 | 0.00 | 0.03 | 0.00 | 34 | 1010.9 |
| 20260506175250 | 9 | 285 | 4.8 | 11.3 | 0.00 | 0.03 | 0.00 | 34 | 1010.9 |
| 20260506174726 | 9 | 295 | 8.0 | 12.9 | 0.00 | 0.03 | 0.00 | 33 | 1010.9 |
| 20260506173250 | 9 | 263 | 3.2 | 9.7 | 0.00 | 0.03 | 0.00 | 32 | 1010.7 |
| 20260506172250 | 10 | 241 | 6.4 | 14.5 | 0.00 | 0.03 | 0.00 | 31 | 1010.6 |
| 20260506171722 | 10 | 258 | 6.4 | 17.7 | 0.00 | 0.03 | 0.00 | 30 | 1010.5 |
| 20260506171230 | 10 | 245 | 3.2 | 9.7 | 0.00 | 0.03 | 0.00 | 31 | 1010.5 |
| 20260506165242 | 10 | 204 | 8.0 | 20.9 | 0.00 | 0.03 | 0.00 | 31 | 1010.5 |
| 20260506164726 | 10 | 224 | 6.4 | 17.7 | 0.00 | 0.03 | 0.00 | 30 | 1010.6 |
| 20260506163243 | 10 | 206 | 6.4 | 14.5 | 0.00 | 0.03 | 0.00 | 30 | 1010.6 |
| 20260506162243 | 10 | 238 | 8.0 | 16.1 | 0.00 | 0.03 | 0.00 | 29 | 1010.6 |
| 20260506161242 | 10 | 277 | 11.3 | 24.1 | 0.00 | 0.03 | 0.00 | 28 | 1010.5 |
| 20260506160244 | 10 | 267 | 12.9 | 25.7 | 0.00 | 0.03 | 0.00 | 28 | 1010.5 |
| 20260506155242 | 10 | 134 | 6.4 | 16.1 | 0.00 | 0.03 | 0.00 | 29 | 1010.3 |
| 20260506154242 | 10 | 189 | 6.4 | 17.7 | 0.00 | 0.03 | 0.00 | 27 | 1010.4 |
| 20260506153243 | 10 | 244 | 4.8 | 14.5 | 0.00 | 0.03 | 0.00 | 27 | 1010.6 |
| 20260506152236 | 10 | 206 | 8.0 | 17.7 | 0.00 | 0.03 | 0.00 | 27 | 1010.6 |
| 20260506152200 | 10 | 242 | 4.8 | 20.9 | 0.00 | 0.03 | 0.00 | 27 | 1010.6 |
| 20260506150713 | 10 | 300 | 6.4 | 16.1 | 0.00 | 0.03 | 0.00 | 28 | 1010.7 |
| 20260506145236 | 10 | 214 | 3.2 | 6.4 | 0.00 | 0.03 | 0.00 | 32 | 1010.6 |
| 20260506144236 | 10 | 69 | 4.8 | 9.7 | 0.00 | 0.03 | 0.00 | 30 | 1010.6 |
| 20260506143717 | 11 | 58 | 6.4 | 12.9 | 0.00 | 0.03 | 0.00 | 29 | 1010.8 |
| 20260506142238 | 10 | 46 | 6.4 | 16.1 | 0.00 | 0.03 | 0.00 | 32 | 1010.8 |
| 20260506141236 | 11 | 144 | 9.7 | 17.7 | 0.00 | 0.03 | 0.00 | 31 | 1010.9 |
| 20260506140234 | 11 | 110 | 8.0 | 17.7 | 0.00 | 0.03 | 0.00 | 32 | 1010.9 |
| 20260506135709 | 10 | 108 | 6.4 | 16.1 | 0.00 | 0.03 | 0.00 | 33 | 1011.0 |
| 20260506134234 | 10 | 143 | 4.8 | 14.5 | 0.00 | 0.03 | 0.00 | 32 | 1011.1 |
| 20260506133234 | 10 | 124 | 6.4 | 11.3 | 0.00 | 0.03 | 0.00 | 37 | 1011.1 |
| 20260506132235 | 10 | 102 | 8.0 | 16.1 | 0.00 | 0.03 | 0.00 | 34 | 1011.3 |
| 20260506131233 | 11 | 224 | 8.0 | 19.3 | 0.00 | 0.03 | 0.00 | 28 | 1011.3 |
| 20260506130235 | 11 | 125 | 4.8 | 11.3 | 0.00 | 0.03 | 0.00 | 29 | 1011.3 |
| 20260506125234 | 11 | 108 | 9.7 | 24.1 | 0.00 | 0.03 | 0.00 | 30 | 1011.3 |
| 20260506124233 | 11 | 74 | 14.5 | 27.4 | 0.00 | 0.03 | 0.00 | 29 | 1011.2 |
| 20260506123229 | 11 | 71 | 12.9 | 27.4 | 0.00 | 0.03 | 0.00 | 35 | 1011.3 |
| 20260506122231 | 12 | 139 | 9.7 | 22.5 | 0.00 | 0.03 | 0.00 | 32 | 1011.6 |
| 20260506121229 | 11 | 90 | 9.7 | 16.1 | 0.00 | 0.03 | 0.00 | 33 | 1011.7 |
| 20260506120230 | 9 | 79 | 4.8 | 12.9 | 0.00 | 0.03 | 0.00 | 37 | 1011.9 |
| 20260506115229 | 8 | 58 | 4.8 | 11.3 | 0.00 | 0.03 | 0.00 | 35 | 1011.9 |
| 20260506114230 | 8 | 71 | 8.0 | 12.9 | 0.00 | 0.03 | 0.00 | 36 | 1011.9 |
| 20260506113230 | 8 | 59 | 4.8 | 9.7 | 0.00 | 0.03 | 0.00 | 36 | 1012.0 |
| 20260506112230 | 9 | 61 | 3.2 | 8.0 | 0.00 | 0.03 | 0.00 | 34 | 1012.1 |
| 20260506111229 | 8 | 15 | 3.2 | 9.7 | 0.00 | 0.03 | 0.00 | 34 | 1012.0 |
| 20260506110229 | 10 | 66 | 4.8 | 11.3 | 0.00 | 0.03 | 0.00 | 34 | 1012.0 |
| 20260506105229 | 8 | 46 | 4.8 | 12.9 | 0.00 | 0.03 | 0.00 | 35 | 1012.0 |
| 20260506104230 | 9 | 56 | 8.0 | 14.5 | 0.00 | 0.03 | 0.00 | 35 | 1012.3 |